Time;durP1;ratioP1;P1;durP2;ratioP2;P2;SDS_P1;SDS_P2;PMS_P1;PMS_P2;Temp;Humidity;BMP_temperature;BMP_pressure;BME280_temperature;BME280_humidity;BME280_pressure;Samples;Min_cycle;Max_cycle;Signal;HPM_P1;HPM_P2
2022/07/03 00:01:46;;;;;;;7.85;4.18;;;;;;;16.85;85.54;101748.13;4908238;29;20028;-85
2022/07/03 00:04:12;;;;;;;4.90;3.88;;;;;;;16.81;85.80;101754.59;4915479;29;20104;-85
2022/07/03 00:06:38;;;;;;;4.10;3.70;;;;;;;16.73;85.54;101752.38;4908148;29;20039;-84
2022/07/03 00:09:04;;;;;;;5.88;4.18;;;;;;;16.71;85.81;101751.59;4875724;29;20275;-85
2022/07/03 00:11:33;;;;;;;5.07;4.25;;;;;;;16.65;85.76;101747.47;4898903;29;20080;-84
2022/07/03 00:13:59;;;;;;;5.60;4.38;;;;;;;16.60;85.96;101738.00;4898306;29;20059;-84
2022/07/03 00:16:25;;;;;;;4.78;4.15;;;;;;;16.52;86.35;101736.59;4889529;29;20039;-85
2022/07/03 00:18:51;;;;;;;5.10;4.60;;;;;;;16.48;86.43;101739.53;4885356;29;20565;-85
2022/07/03 00:21:21;;;;;;;5.30;4.80;;;;;;;16.45;86.68;101743.22;4881224;29;20058;-84
2022/07/03 00:23:52;;;;;;;4.93;4.18;;;;;;;16.41;86.72;101742.53;4868413;29;20487;-84
2022/07/03 00:26:20;;;;;;;4.47;4.07;;;;;;;16.39;86.32;101743.56;4892465;29;20409;-84
2022/07/03 00:28:46;;;;;;;5.13;4.38;;;;;;;16.35;86.07;101742.03;4889707;29;21062;-84
2022/07/03 00:31:13;;;;;;;4.97;4.22;;;;;;;16.31;85.95;101746.69;4913213;29;20036;-84
2022/07/03 00:33:42;;;;;;;4.82;3.83;;;;;;;16.28;86.23;101746.84;4896603;29;20044;-83
2022/07/03 00:36:11;;;;;;;4.72;3.95;;;;;;;16.24;86.13;101745.31;4896136;29;20036;-83
2022/07/03 00:38:38;;;;;;;4.25;3.78;;;;;;;16.24;86.65;101742.63;4907377;29;20906;-83
2022/07/03 00:41:07;;;;;;;3.90;3.53;;;;;;;16.18;86.37;101743.81;4912208;29;20040;-83
2022/07/03 00:43:33;;;;;;;4.90;3.83;;;;;;;16.15;86.81;101747.53;4899583;29;20628;-83
2022/07/03 00:46:06;;;;;;;4.85;4.28;;;;;;;16.13;87.45;101735.22;4913469;29;20047;-84
2022/07/03 00:48:36;;;;;;;4.65;4.10;;;;;;;16.10;87.60;101738.03;4912710;29;20040;-84
2022/07/03 00:51:02;;;;;;;6.05;4.07;;;;;;;16.04;87.25;101727.69;4896164;29;20171;-83
2022/07/03 00:53:32;;;;;;;5.03;4.03;;;;;;;15.99;87.78;101730.63;4897682;28;20573;-83
2022/07/03 00:55:59;;;;;;;4.72;3.95;;;;;;;15.96;87.71;101722.78;4934945;28;20403;-84
2022/07/03 00:58:25;;;;;;;4.32;3.55;;;;;;;15.92;87.70;101727.44;4916628;28;20054;-84
2022/07/03 01:00:52;;;;;;;4.30;3.88;;;;;;;15.88;87.90;101721.34;4927702;28;20046;-84
2022/07/03 01:03:20;;;;;;;4.80;4.00;;;;;;;15.86;88.37;101727.72;4919596;28;20086;-84
2022/07/03 01:05:51;;;;;;;4.18;3.67;;;;;;;15.84;88.33;101721.59;4904362;28;20055;-84
2022/07/03 01:08:45;;;;;;;4.22;3.38;;;;;;;15.80;88.06;101722.72;4931660;28;20044;-83
2022/07/03 01:11:48;;;;;;;5.35;3.50;;;;;;;15.78;88.57;101721.91;4910759;28;20054;-85
2022/07/03 01:14:45;;;;;;;4.40;3.25;;;;;;;15.73;88.78;101716.81;4910496;28;20489;-84
2022/07/03 01:17:38;;;;;;;3.75;3.22;;;;;;;15.68;88.72;101708.22;4921674;28;20036;-84
2022/07/03 01:20:06;;;;;;;3.97;3.42;;;;;;;15.68;88.63;101714.41;4895377;28;20058;-84
2022/07/03 01:22:52;;;;;;;3.95;3.47;;;;;;;15.63;89.01;101708.44;4909156;28;20402;-85
2022/07/03 01:25:44;;;;;;;3.22;2.90;;;;;;;15.59;88.98;101714.91;4906813;28;20047;-84
2022/07/03 01:28:18;;;;;;;3.67;3.13;;;;;;;15.58;88.39;101721.19;4902993;28;20053;-85
2022/07/03 01:30:49;;;;;;;4.55;3.70;;;;;;;15.55;88.50;101702.66;4916686;28;20102;-85
2022/07/03 01:33:25;;;;;;;3.80;3.03;;;;;;;15.53;88.77;101708.06;4933912;28;20095;-85
2022/07/03 01:35:59;;;;;;;5.50;3.28;;;;;;;15.51;88.52;101704.63;4913261;28;20031;-85
2022/07/03 01:38:27;;;;;;;4.00;3.60;;;;;;;15.47;88.40;101709.25;4938910;28;20051;-84
2022/07/03 01:40:54;;;;;;;4.30;3.90;;;;;;;15.48;88.65;101713.66;4915520;28;20409;-84
2022/07/03 01:43:25;;;;;;;4.70;4.20;;;;;;;15.46;88.66;101709.34;4928961;28;20039;-84
2022/07/03 01:45:52;;;;;;;5.47;4.07;;;;;;;15.46;88.61;101709.34;4933127;28;20226;-84
2022/07/03 01:48:18;;;;;;;4.63;3.53;;;;;;;15.47;88.59;101705.72;4935693;28;20506;-84
2022/07/03 01:50:46;;;;;;;4.63;3.60;;;;;;;15.46;88.68;101696.88;4914620;28;20045;-84
2022/07/03 01:53:12;;;;;;;3.88;3.50;;;;;;;15.45;88.39;101702.28;4936737;28;20158;-84
2022/07/03 01:55:40;;;;;;;4.60;3.58;;;;;;;15.44;89.20;101692.56;4917800;28;20086;-84
2022/07/03 01:58:05;;;;;;;5.25;3.88;;;;;;;15.41;88.73;101696.25;4920297;28;20739;-83
2022/07/03 02:00:46;;;;;;;3.95;3.50;;;;;;;15.39;89.89;101691.94;4928662;28;20036;-84
2022/07/03 02:03:19;;;;;;;3.53;3.10;;;;;;;15.34;89.48;101690.38;4928437;28;20087;-83
2022/07/03 02:05:45;;;;;;;;;;;;;;;15.32;91.31;101691.41;4938530;28;20039;-83
2022/07/03 02:08:19;;;;;;;3.95;3.30;;;;;;;15.27;90.40;101694.31;4936724;28;19923;-84
2022/07/03 02:11:29;;;;;;;3.78;3.00;;;;;;;15.23;90.76;101692.72;4935294;28;20200;-83
2022/07/03 02:14:01;;;;;;;4.57;3.15;;;;;;;15.19;90.32;101692.03;4932248;28;20062;-83
2022/07/03 02:16:27;;;;;;;3.92;3.50;;;;;;;15.15;90.70;101686.94;4935333;28;20054;-84
2022/07/03 02:18:58;;;;;;;4.22;3.00;;;;;;;15.12;90.71;101685.28;4925741;28;20035;-84
2022/07/03 02:21:27;;;;;;;4.45;3.30;;;;;;;15.08;90.87;101683.72;4920591;28;20513;-84
2022/07/03 02:24:15;;;;;;;3.95;3.35;;;;;;;15.05;91.15;101679.38;4918457;28;20065;-84
2022/07/03 02:26:42;;;;;;;5.47;4.90;;;;;;;15.05;92.81;101683.88;4937007;28;20098;-84
2022/07/03 02:29:12;;;;;;;6.82;4.53;;;;;;;15.07;93.87;101680.19;4887522;28;20070;-84
2022/07/03 02:31:42;;;;;;;5.90;5.13;;;;;;;15.06;94.47;101675.81;4927841;28;20039;-84
2022/07/03 02:34:15;;;;;;;7.03;5.90;;;;;;;15.03;94.88;101675.09;4936057;28;20391;-83
2022/07/03 02:36:46;;;;;;;6.63;5.90;;;;;;;15.00;94.93;101680.56;4927436;28;20649;-84
2022/07/03 02:39:23;;;;;;;6.50;5.90;;;;;;;14.98;95.84;101685.97;4929196;28;20043;-83
2022/07/03 02:41:53;;;;;;;5.88;5.28;;;;;;;14.95;96.13;101683.47;4917607;28;20070;-83
2022/07/03 02:44:47;;;;;;;6.18;5.53;;;;;;;14.92;96.46;101681.84;4917492;28;20051;-84
2022/07/03 02:47:45;;;;;;;6.25;5.43;;;;;;;14.90;96.92;101688.19;4933675;28;20086;-83
2022/07/03 02:50:12;;;;;;;6.38;5.53;;;;;;;14.88;96.39;101682.06;4918333;28;20090;-84
2022/07/03 02:52:38;;;;;;;6.63;5.30;;;;;;;14.87;96.46;101669.69;4917780;28;20071;-84
2022/07/03 02:55:35;;;;;;;6.10;5.38;;;;;;;14.86;97.81;101679.47;4934453;28;20134;-83
2022/07/03 02:58:16;;;;;;;6.28;4.95;;;;;;;14.87;97.85;101680.34;4916949;28;20475;-84
2022/07/03 03:01:07;;;;;;;6.45;5.57;;;;;;;14.86;97.48;101675.97;4918695;28;21247;-84
2022/07/03 03:03:33;;;;;;;5.72;5.03;;;;;;;14.88;97.50;101672.25;4912982;28;20158;-85
2022/07/03 03:06:03;;;;;;;7.75;5.35;;;;;;;14.90;97.63;101683.72;4903743;28;20104;-84
2022/07/03 03:08:36;;;;;;;9.18;6.10;;;;;;;14.93;98.16;101674.72;4911795;28;21471;-84
2022/07/03 03:11:09;;;;;;;7.55;5.32;;;;;;;14.97;98.46;101670.94;4894256;28;20042;-85
2022/07/03 03:13:35;;;;;;;5.80;5.20;;;;;;;14.99;97.95;101669.03;4926457;28;20522;-84
2022/07/03 03:16:08;;;;;;;8.30;6.10;;;;;;;15.00;98.37;101672.56;4895485;28;20039;-84
2022/07/03 03:18:36;;;;;;;6.03;5.28;;;;;;;15.01;98.52;101672.50;4912567;28;20043;-85
2022/07/03 03:21:03;;;;;;;6.43;5.60;;;;;;;15.00;98.62;101676.13;4934202;28;20047;-84
2022/07/03 03:23:46;;;;;;;6.32;5.65;;;;;;;15.02;99.29;101674.22;4919180;28;20050;-84
2022/07/03 03:26:12;;;;;;;6.60;5.90;;;;;;;15.03;99.07;101667.94;4916074;28;20047;-85
2022/07/03 03:28:42;;;;;;;6.15;5.53;;;;;;;15.04;99.15;101675.00;4903563;28;20054;-84
2022/07/03 03:31:08;;;;;;;5.90;5.28;;;;;;;15.04;99.13;101671.50;4923490;28;20602;-84
2022/07/03 03:33:44;;;;;;;8.13;5.80;;;;;;;15.04;99.43;101675.00;4934612;28;20035;-84
2022/07/03 03:36:11;;;;;;;7.30;5.50;;;;;;;15.06;99.05;101675.81;4911472;28;20923;-84
2022/07/03 03:38:38;;;;;;;5.65;4.85;;;;;;;15.07;99.32;101679.31;4902361;28;21121;-83
2022/07/03 03:41:04;;;;;;;6.45;5.30;;;;;;;15.08;99.84;101678.38;4934254;28;20055;-84
2022/07/03 03:43:30;;;;;;;6.82;5.47;;;;;;;15.09;99.46;101671.25;4908347;28;20128;-84
2022/07/03 03:45:56;;;;;;;6.53;5.47;;;;;;;15.08;99.45;101667.72;4901343;28;20421;-84
2022/07/03 03:48:22;;;;;;;7.88;6.30;;;;;;;15.11;99.65;101669.34;4893661;28;20043;-85
2022/07/03 03:50:48;;;;;;;6.85;5.93;;;;;;;15.12;99.86;101665.75;4932263;28;20571;-85
2022/07/03 03:53:17;;;;;;;6.85;6.03;;;;;;;15.13;99.91;101667.47;4904537;29;20070;-84
2022/07/03 03:56:00;;;;;;;7.25;5.88;;;;;;;15.13;100.00;101675.47;4904325;29;20048;-84
2022/07/03 03:58:31;;;;;;;7.00;6.22;;;;;;;15.15;99.90;101673.59;4889998;29;20044;-84
2022/07/03 04:00:57;;;;;;;9.05;6.22;;;;;;;15.19;100.00;101670.69;4889969;29;20040;-84
2022/07/03 04:03:26;;;;;;;6.90;5.75;;;;;;;15.20;100.00;101672.41;4903979;29;20399;-83
2022/07/03 04:05:53;;;;;;;6.85;5.80;;;;;;;15.25;100.00;101677.50;4906691;29;20032;-84
2022/07/03 04:08:19;;;;;;;7.35;5.38;;;;;;;15.32;100.00;101670.91;4891125;29;20047;-85
2022/07/03 04:10:45;;;;;;;7.13;5.55;;;;;;;15.38;100.00;101664.41;4890198;29;20442;-83
2022/07/03 04:13:10;;;;;;;5.88;4.78;;;;;;;15.42;100.00;101655.28;4905055;29;20031;-83
2022/07/03 04:15:36;;;;;;;9.57;5.75;;;;;;;15.49;100.00;101661.16;4889372;29;20166;-83
2022/07/03 04:18:02;;;;;;;7.30;5.70;;;;;;;15.53;100.00;101662.69;4905398;29;22358;-83
2022/07/03 04:20:27;;;;;;;7.13;5.65;;;;;;;15.55;100.00;101659.97;4903948;29;20048;-83
2022/07/03 04:22:53;;;;;;;7.50;5.25;;;;;;;15.57;100.00;101664.28;4905003;29;20044;-83
2022/07/03 04:25:18;;;;;;;7.30;5.60;;;;;;;15.59;100.00;101667.72;4903663;29;20048;-84
2022/07/03 04:27:44;;;;;;;8.55;5.03;;;;;;;15.59;100.00;101667.72;4898150;29;20135;-84
2022/07/03 04:30:10;;;;;;;6.07;5.10;;;;;;;15.59;100.00;101664.19;4905914;29;20056;-83
2022/07/03 04:32:39;;;;;;;5.97;4.50;;;;;;;15.59;100.00;101662.38;4903771;29;20048;-84
2022/07/03 04:35:05;;;;;;;5.57;4.97;;;;;;;15.60;100.00;101657.91;4882360;29;20127;-83
2022/07/03 04:37:31;;;;;;;5.82;5.00;;;;;;;15.59;100.00;101662.38;4889192;29;20035;-83
2022/07/03 04:39:56;;;;;;;6.53;4.95;;;;;;;15.62;100.00;101666.69;4904074;29;21768;-83
2022/07/03 04:42:22;;;;;;;4.95;4.45;;;;;;;15.65;100.00;101660.31;4904606;29;21534;-83
2022/07/03 04:44:48;;;;;;;5.90;4.95;;;;;;;15.69;100.00;101648.56;4905396;29;20052;-84
2022/07/03 04:47:14;;;;;;;6.35;5.05;;;;;;;15.71;100.00;101660.88;4889578;29;20063;-83
2022/07/03 04:49:40;;;;;;;5.80;5.13;;;;;;;15.71;100.00;101654.66;4889368;29;20048;-83
2022/07/03 04:52:06;;;;;;;5.22;4.70;;;;;;;15.71;100.00;101660.88;4893810;29;20048;-83
2022/07/03 04:54:32;;;;;;;5.57;4.22;;;;;;;15.72;100.00;101664.38;4922403;28;20066;-83
2022/07/03 04:56:57;;;;;;;4.90;4.35;;;;;;;15.74;100.00;101668.69;4900271;28;20533;-83
2022/07/03 04:59:23;;;;;;;4.00;3.60;;;;;;;15.78;100.00;101674.72;4913222;28;20169;-83
2022/07/03 05:01:49;;;;;;;6.28;3.47;;;;;;;15.84;100.00;101677.06;4883549;28;20145;-81
2022/07/03 05:04:16;;;;;;;3.60;3.30;;;;;;;15.92;100.00;101675.81;4909793;28;20179;-81
2022/07/03 05:06:45;;;;;;;4.07;2.95;;;;;;;15.96;100.00;101682.72;4919574;28;20110;-83
2022/07/03 05:09:14;;;;;;;4.70;3.03;;;;;;;16.01;100.00;101678.84;4927047;28;20065;-79
2022/07/03 05:11:40;;;;;;;3.15;2.40;;;;;;;16.05;100.00;101684.88;4935268;28;20034;-78
2022/07/03 05:14:07;;;;;;;2.60;2.40;;;;;;;16.08;99.97;101694.53;4928558;28;20079;-80
2022/07/03 05:16:32;;;;;;;2.92;2.63;;;;;;;16.10;99.56;101695.31;4935960;28;20089;-79
2022/07/03 05:18:58;;;;;;;3.30;2.40;;;;;;;16.11;99.26;101691.69;4918508;28;20051;-80
2022/07/03 05:21:24;;;;;;;2.55;2.25;;;;;;;16.12;99.06;101690.75;4937747;28;20034;-80
2022/07/03 05:23:49;;;;;;;2.25;2.05;;;;;;;16.14;98.87;101688.84;4935425;28;20043;-80
2022/07/03 05:26:15;;;;;;;2.65;2.15;;;;;;;16.14;98.69;101686.19;4920289;28;20038;-80
2022/07/03 05:28:41;;;;;;;4.95;2.30;;;;;;;16.15;98.71;101696.78;4935412;28;20058;-78
2022/07/03 05:31:09;;;;;;;2.25;2.03;;;;;;;16.16;98.64;101692.28;4934326;28;20185;-79
2022/07/03 05:33:35;;;;;;;2.95;1.95;;;;;;;16.17;98.91;101704.69;4936591;28;20043;-80
2022/07/03 05:36:00;;;;;;;2.22;2.00;;;;;;;16.19;98.88;101702.81;4936124;28;20078;-79
2022/07/03 05:41:11;;;;;;;2.28;1.90;;;;;;;16.30;98.77;101699.53;4938189;28;20406;-79
2022/07/03 05:43:37;;;;;;;2.95;2.20;;;;;;;16.42;99.35;101704.19;4928749;28;20154;-79
2022/07/03 05:46:04;;;;;;;2.78;2.00;;;;;;;16.53;99.03;101695.56;4930940;28;20043;-79
2022/07/03 05:48:29;;;;;;;2.95;1.75;;;;;;;16.66;98.49;101695.72;4938979;28;20043;-79
2022/07/03 05:50:56;;;;;;;4.35;2.00;;;;;;;16.79;97.97;101697.69;4930103;28;20501;-79
2022/07/03 05:53:22;;;;;;;1.88;1.60;;;;;;;16.96;97.91;101691.34;4938296;28;20499;-80
2022/07/03 05:55:47;;;;;;;1.83;1.60;;;;;;;17.16;97.34;101694.66;4921657;28;20044;-78
2022/07/03 05:58:13;;;;;;;1.90;1.65;;;;;;;17.35;96.96;101694.41;4937327;28;20075;-79
2022/07/03 06:00:39;;;;;;;3.08;1.50;;;;;;;17.54;96.35;101699.50;4937729;28;20058;-78
2022/07/03 06:03:06;;;;;;;1.20;1.15;;;;;;;17.73;95.53;101684.97;4904990;28;20368;-78
2022/07/03 06:05:32;;;;;;;1.45;1.35;;;;;;;17.92;94.44;101696.25;4938038;28;20043;-77
2022/07/03 06:07:58;;;;;;;1.65;1.30;;;;;;;18.13;93.01;101703.91;4908030;28;20490;-77
2022/07/03 06:10:25;;;;;;;1.88;1.20;;;;;;;18.24;92.22;101695.16;4919313;28;21714;-78
2022/07/03 06:12:50;;;;;;;1.20;1.10;;;;;;;18.28;91.81;101701.19;4929330;28;20038;-78
2022/07/03 06:15:16;;;;;;;1.92;1.30;;;;;;;18.29;91.67;101702.91;4923088;28;20048;-79
2022/07/03 06:17:43;;;;;;;2.00;1.30;;;;;;;18.29;91.45;101703.78;4935703;28;20044;-77
2022/07/03 06:20:09;;;;;;;2.67;1.40;;;;;;;18.29;90.87;101695.75;4937630;28;20043;-78
2022/07/03 06:22:35;;;;;;;1.40;1.30;;;;;;;18.40;91.37;101700.41;4938690;28;20046;-77
2022/07/03 06:25:00;;;;;;;1.63;1.42;;;;;;;18.59;91.49;101697.34;4938151;28;20055;-77
2022/07/03 06:27:28;;;;;;;1.27;1.20;;;;;;;18.84;91.21;101706.47;4937869;28;20048;-77
2022/07/03 06:29:54;;;;;;;2.42;1.23;;;;;;;19.02;90.30;101698.19;4934603;28;20102;-78
2022/07/03 06:32:20;;;;;;;2.17;1.10;;;;;;;19.25;90.33;101709.16;4936593;28;20585;-78
2022/07/03 06:34:45;;;;;;;1.83;1.23;;;;;;;19.41;88.30;101707.09;4928173;28;20055;-79
2022/07/03 06:37:14;;;;;;;1.05;1.00;;;;;;;19.63;88.59;101705.63;4937133;28;20062;-77
2022/07/03 06:39:40;;;;;;;0.90;0.73;;;;;;;19.79;84.31;101709.91;4935081;28;20546;-78
2022/07/03 06:42:06;;;;;;;1.42;0.93;;;;;;;19.90;84.07;101712.69;4928157;28;20044;-77
2022/07/03 06:44:32;;;;;;;1.65;0.93;;;;;;;20.03;84.29;101717.19;4936033;28;20512;-77
2022/07/03 06:46:58;;;;;;;0.70;0.70;;;;;;;20.11;80.17;101717.53;4918328;28;20051;-79
2022/07/03 06:49:24;;;;;;;1.13;0.77;;;;;;;20.24;82.49;101719.28;4919041;28;20050;-78
2022/07/03 06:51:50;;;;;;;3.75;0.88;;;;;;;20.41;83.05;101718.91;4937606;28;20469;-77
2022/07/03 06:54:15;;;;;;;2.60;1.02;;;;;;;20.58;82.40;101712.28;4914107;28;20048;-77
2022/07/03 06:56:42;;;;;;;0.98;0.63;;;;;;;20.79;80.57;101710.78;4937559;28;20086;-77
2022/07/03 06:59:08;;;;;;;0.90;0.60;;;;;;;20.96;81.91;101706.88;4919194;28;20047;-76
2022/07/03 07:01:33;;;;;;;0.95;0.68;;;;;;;21.13;81.02;101706.41;4927988;28;20080;-76
2022/07/03 07:03:59;;;;;;;1.48;0.80;;;;;;;21.32;80.65;101701.44;4914088;28;20077;-75
2022/07/03 07:06:25;;;;;;;0.70;0.70;;;;;;;21.41;77.70;101704.25;4936822;28;20079;-77
2022/07/03 07:08:50;;;;;;;0.80;0.63;;;;;;;21.29;77.60;101706.09;4936933;28;20476;-77
2022/07/03 07:11:16;;;;;;;2.13;0.77;;;;;;;21.23;77.78;101711.06;4937195;28;20035;-77
2022/07/03 07:13:42;;;;;;;1.00;0.70;;;;;;;21.26;78.76;101709.03;4912810;28;20557;-77
2022/07/03 07:16:07;;;;;;;1.67;0.80;;;;;;;21.38;76.92;101709.03;4933732;28;20517;-78
2022/07/03 07:18:34;;;;;;;0.85;0.60;;;;;;;21.55;78.04;101711.28;4935698;28;20455;-78
2022/07/03 07:21:00;;;;;;;1.02;0.70;;;;;;;21.62;72.43;101708.94;4935901;28;20035;-77
2022/07/03 07:23:25;;;;;;;0.70;0.60;;;;;;;21.72;75.65;101710.94;4937103;28;20383;-76
2022/07/03 07:25:51;;;;;;;0.98;0.63;;;;;;;21.80;74.10;101714.72;4913467;28;20164;-76
2022/07/03 07:28:17;;;;;;;1.17;0.70;;;;;;;21.87;74.57;101725.00;4935489;28;20417;-76
2022/07/03 07:30:42;;;;;;;1.27;0.60;;;;;;;21.95;72.85;101722.59;4935879;28;20521;-77
2022/07/03 07:33:08;;;;;;;0.50;0.45;;;;;;;22.08;68.98;101725.13;4937221;28;20043;-75
2022/07/03 07:35:34;;;;;;;0.43;0.40;;;;;;;22.13;71.63;101725.63;4920996;28;20045;-76
2022/07/03 07:37:59;;;;;;;1.60;0.60;;;;;;;22.28;70.92;101730.75;4913941;28;20043;-78
2022/07/03 07:40:25;;;;;;;1.27;0.90;;;;;;;22.29;69.56;101730.63;4936055;28;20047;-78
2022/07/03 07:42:51;;;;;;;1.55;0.70;;;;;;;22.38;71.65;101723.59;4937032;28;20047;-78
2022/07/03 07:45:17;;;;;;;1.65;0.50;;;;;;;22.50;70.33;101733.38;4935554;28;20062;-78
2022/07/03 07:47:48;;;;;;;0.70;0.70;;;;;;;22.63;66.67;101732.41;4917892;28;21655;-77
2022/07/03 07:50:14;;;;;;;0.40;0.40;;;;;;;22.51;67.56;101723.50;4935967;28;21898;-79
2022/07/03 07:52:40;;;;;;;0.40;0.40;;;;;;;22.62;65.59;101723.44;4935500;28;20306;-77
2022/07/03 07:55:07;;;;;;;1.20;0.45;;;;;;;22.70;68.90;101725.50;4927078;28;20046;-77
2022/07/03 07:57:36;;;;;;;1.38;0.77;;;;;;;22.69;61.81;101725.63;4937231;28;20043;-77
2022/07/03 08:00:11;;;;;;;1.17;0.50;;;;;;;22.75;62.98;101733.22;4935027;28;20039;-77
2022/07/03 08:05:37;;;;;;;0.98;0.50;;;;;;;22.83;65.59;101733.44;4921762;28;20075;-79
2022/07/03 08:08:13;;;;;;;0.50;0.50;;;;;;;22.91;65.36;101728.25;4935852;28;20051;-78
2022/07/03 08:10:48;;;;;;;0.63;0.52;;;;;;;23.04;65.78;101730.75;4936310;28;20086;-77
2022/07/03 08:13:16;;;;;;;2.40;0.82;;;;;;;23.15;65.38;101719.03;4918401;28;20820;-78
2022/07/03 08:15:42;;;;;;;1.08;0.68;;;;;;;23.26;65.26;101728.06;4933733;28;21414;-78
2022/07/03 08:18:08;;;;;;;0.50;0.43;;;;;;;23.44;63.19;101740.00;4936047;28;20050;-78
2022/07/03 08:20:35;;;;;;;1.20;0.65;;;;;;;23.51;63.06;101723.25;4933936;28;20076;-79
2022/07/03 08:23:02;;;;;;;0.73;0.60;;;;;;;23.64;60.00;101731.16;4935886;28;20450;-79
2022/07/03 08:25:28;;;;;;;1.45;0.60;;;;;;;23.62;61.61;101731.28;4932867;28;20514;-78
2022/07/03 08:27:53;;;;;;;0.50;0.50;;;;;;;23.63;63.60;101740.28;4935175;28;20055;-78
2022/07/03 08:30:19;;;;;;;1.00;0.60;;;;;;;23.37;60.28;101741.53;4931703;28;20046;-80
2022/07/03 08:32:50;;;;;;;1.30;0.60;;;;;;;23.32;62.26;101736.53;4919325;28;20046;-79
2022/07/03 08:35:16;;;;;;;0.70;0.60;;;;;;;23.43;62.91;101738.28;4916807;28;20164;-78
2022/07/03 08:37:43;;;;;;;1.05;0.70;;;;;;;23.22;62.95;101732.00;4916106;28;20511;-79
2022/07/03 08:40:16;;;;;;;2.35;0.90;;;;;;;23.01;64.11;101728.34;4910308;28;20055;-78
2022/07/03 08:42:49;;;;;;;2.13;0.65;;;;;;;22.82;61.15;101734.41;4935666;28;20255;-79
2022/07/03 08:45:17;;;;;;;1.05;0.60;;;;;;;22.83;65.66;101733.44;4926391;28;20548;-79
2022/07/03 08:47:44;;;;;;;3.25;0.70;;;;;;;23.02;65.84;101735.44;4904614;28;20557;-78
2022/07/03 08:50:15;;;;;;;0.60;0.60;;;;;;;23.09;65.94;101735.75;4916880;28;20264;-79
2022/07/03 08:52:44;;;;;;;1.90;0.80;;;;;;;23.21;66.02;101731.19;4932290;28;20413;-80
2022/07/03 08:55:15;;;;;;;2.75;0.55;;;;;;;23.28;65.64;101736.91;4934784;28;20043;-78
2022/07/03 08:57:44;;;;;;;2.50;0.70;;;;;;;23.36;65.26;101739.81;4935753;28;20059;-77
2022/07/03 09:00:16;;;;;;;1.15;0.73;;;;;;;23.39;61.85;101733.28;4935479;28;20486;-77
2022/07/03 09:02:45;;;;;;;0.70;0.70;;;;;;;23.45;65.66;101738.16;4934040;28;20043;-80
2022/07/03 09:05:18;;;;;;;1.10;0.80;;;;;;;23.33;63.96;101749.03;4935372;28;20172;-80
2022/07/03 09:07:45;;;;;;;1.38;0.80;;;;;;;22.98;63.01;101752.03;4935294;28;20126;-78
2022/07/03 09:10:12;;;;;;;1.95;0.90;;;;;;;22.73;65.15;101754.09;4932724;28;20054;-78
2022/07/03 09:12:38;;;;;;;1.00;0.60;;;;;;;22.76;64.12;101753.81;4934648;28;20505;-79
2022/07/03 09:15:05;;;;;;;0.50;0.50;;;;;;;22.87;66.26;101753.78;4931513;28;20043;-80
2022/07/03 09:17:32;;;;;;;1.67;1.15;;;;;;;23.02;65.55;101746.25;4915690;28;20450;-78
2022/07/03 09:19:58;;;;;;;0.85;0.70;;;;;;;23.30;65.67;101753.84;4903248;28;20110;-78
2022/07/03 09:22:25;;;;;;;2.03;0.90;;;;;;;23.44;65.33;101753.50;4922148;28;20423;-77
2022/07/03 09:24:53;;;;;;;1.35;0.88;;;;;;;23.65;65.20;101749.09;4934639;28;20047;-76
2022/07/03 09:27:21;;;;;;;1.02;0.77;;;;;;;23.88;64.78;101763.28;4919328;28;20051;-78
2022/07/03 09:30:01;;;;;;;2.45;0.80;;;;;;;23.63;62.42;101757.31;4934803;28;21855;-77
2022/07/03 09:32:44;;;;;;;1.75;0.70;;;;;;;23.30;63.36;101752.00;4911982;28;20062;-80
2022/07/03 09:35:15;;;;;;;4.90;1.10;;;;;;;23.21;63.92;101755.47;4917936;28;20044;-80
2022/07/03 09:37:56;;;;;;;1.20;0.82;;;;;;;23.29;64.14;101755.69;4934730;28;20048;-77
2022/07/03 09:40:23;;;;;;;0.75;0.60;;;;;;;23.22;63.15;101759.03;4925033;28;20039;-77
2022/07/03 09:43:00;;;;;;;1.30;0.63;;;;;;;23.11;63.82;101757.25;4935430;28;20057;-77
2022/07/03 09:45:26;;;;;;;1.25;0.80;;;;;;;22.91;63.88;101757.94;4931573;28;20165;-78
2022/07/03 09:47:51;;;;;;;4.07;0.85;;;;;;;22.66;64.26;101753.72;4916065;28;20054;-78
2022/07/03 09:50:17;;;;;;;1.67;0.70;;;;;;;22.43;64.05;101764.56;4919444;28;20047;-77
2022/07/03 09:52:44;;;;;;;1.98;0.90;;;;;;;22.18;64.90;101753.06;4914947;28;20038;-79
2022/07/03 09:55:10;;;;;;;2.17;1.00;;;;;;;22.01;66.21;101764.34;4938682;28;20050;-78
2022/07/03 09:57:40;;;;;;;2.63;0.95;;;;;;;21.85;67.18;101765.59;4937721;28;20446;-77
2022/07/03 10:00:13;;;;;;;1.73;0.73;;;;;;;21.69;67.37;101761.38;4937915;28;20039;-78
2022/07/03 10:02:58;;;;;;;1.92;0.88;;;;;;;21.68;68.60;101767.72;4938650;28;20679;-79
2022/07/03 10:05:35;;;;;;;2.85;0.80;;;;;;;21.89;67.46;101763.50;4938894;28;20126;-80
2022/07/03 10:08:02;;;;;;;2.25;0.90;;;;;;;22.06;66.80;101772.94;4937611;28;21052;-78
2022/07/03 10:10:30;;;;;;;1.88;0.93;;;;;;;22.02;67.24;101768.75;4938005;28;20043;-76
2022/07/03 10:12:56;;;;;;;1.77;1.17;;;;;;;21.87;67.72;101769.00;4920719;28;20045;-77
2022/07/03 10:15:23;;;;;;;2.90;1.05;;;;;;;21.92;68.77;101766.81;4919290;28;20634;-76
2022/07/03 10:17:51;;;;;;;2.85;1.33;;;;;;;22.15;68.86;101758.72;4937632;28;20051;-79
2022/07/03 10:20:24;;;;;;;1.35;1.00;;;;;;;22.23;68.63;101763.50;4925641;28;20043;-77
2022/07/03 10:22:50;;;;;;;1.52;0.90;;;;;;;22.21;68.46;101765.44;4935707;28;20040;-77
2022/07/03 10:25:17;;;;;;;3.22;1.40;;;;;;;22.10;68.41;101769.88;4928053;28;20062;-79
2022/07/03 10:27:44;;;;;;;1.35;1.05;;;;;;;21.90;68.52;101767.91;4937805;28;20509;-75
2022/07/03 10:30:10;;;;;;;1.80;1.13;;;;;;;21.75;69.36;101776.22;4919520;28;20261;-74
2022/07/03 10:32:37;;;;;;;1.85;1.08;;;;;;;21.67;69.66;101781.31;4927244;28;20766;-77
2022/07/03 10:35:03;;;;;;;3.95;1.48;;;;;;;21.58;70.00;101785.59;4934172;28;20260;-76
2022/07/03 10:37:38;;;;;;;1.13;0.90;;;;;;;21.60;70.65;101782.78;4926175;28;20064;-77
2022/07/03 10:46:09;;;;;;;1.40;0.95;;;;;;;21.64;69.10;101784.25;4929165;28;20470;-76
2022/07/03 10:49:04;;;;;;;1.92;0.80;;;;;;;21.84;69.99;101780.00;4927751;28;20126;-77
2022/07/03 10:51:45;;;;;;;1.80;0.90;;;;;;;21.97;66.86;101786.16;4935184;28;20061;-77
2022/07/03 10:54:21;;;;;;;0.82;0.82;;;;;;;21.96;67.04;101784.44;4937509;28;20054;-78
2022/07/03 10:56:58;;;;;;;0.70;0.70;;;;;;;22.00;64.73;101785.06;4927889;28;20455;-78
2022/07/03 10:59:36;;;;;;;2.95;0.80;;;;;;;22.05;65.55;101784.72;4937560;28;20050;-78
2022/07/03 11:02:32;;;;;;;1.70;0.70;;;;;;;22.08;66.27;101788.00;4936995;28;20056;-77
2022/07/03 11:05:01;;;;;;;1.38;0.70;;;;;;;22.07;66.81;101783.56;4936957;28;20695;-79
2022/07/03 11:07:31;;;;;;;1.73;0.75;;;;;;;22.11;66.37;101782.38;4937780;28;20054;-78
2022/07/03 11:10:12;;;;;;;1.85;0.85;;;;;;;22.10;65.50;101779.78;4927184;28;20044;-81
2022/07/03 11:12:56;;;;;;;0.95;0.88;;;;;;;22.11;65.45;101792.28;4935236;28;20566;-80
2022/07/03 11:15:52;;;;;;;1.02;0.68;;;;;;;22.18;65.76;101781.88;4933634;28;20151;-80
2022/07/03 11:18:28;;;;;;;1.92;0.90;;;;;;;22.17;65.95;101782.84;4918629;28;20106;-78
2022/07/03 11:20:53;;;;;;;1.58;0.75;;;;;;;22.24;66.20;101784.06;4937062;28;20043;-78
2022/07/03 11:23:25;;;;;;;1.35;0.80;;;;;;;22.31;66.65;101782.59;4936998;28;20486;-76
2022/07/03 11:25:55;;;;;;;2.55;0.93;;;;;;;22.30;65.92;101780.03;4936618;28;20114;-77
2022/07/03 11:28:30;;;;;;;0.88;0.60;;;;;;;22.23;66.02;101777.81;4914549;28;20070;-78
2022/07/03 11:33:48;;;;;;;2.75;0.90;;;;;;;22.17;65.61;101772.06;4936811;28;20062;-76
2022/07/03 11:36:16;;;;;;;1.20;1.00;;;;;;;22.06;65.73;101778.34;4914053;28;20469;-78
2022/07/03 11:38:46;;;;;;;1.00;0.80;;;;;;;21.95;65.83;101776.50;4935948;28;20054;-77
2022/07/03 11:41:14;;;;;;;0.80;0.80;;;;;;;21.94;66.15;101774.75;4934460;28;20035;-78
2022/07/03 11:43:47;;;;;;;2.17;0.70;;;;;;;21.96;65.03;101775.50;4936625;28;20039;-77
2022/07/03 11:46:17;;;;;;;1.08;0.70;;;;;;;22.08;65.53;101773.66;4918244;28;20045;-76
2022/07/03 11:48:46;;;;;;;1.02;0.60;;;;;;;22.20;64.90;101771.81;4934648;28;20426;-78
2022/07/03 11:51:12;;;;;;;0.90;0.80;;;;;;;22.16;64.77;101771.19;4935642;28;20042;-76